createdAt,value
2016-10-10T00:00:44.141Z,1042.32
2016-10-10T00:01:44.134Z,1042.29
2016-10-10T00:02:44.124Z,1042.23
2016-10-10T00:03:44.115Z,1042.22
2016-10-10T00:04:45.012Z,1042.18
2016-10-10T00:05:44.690Z,1042.16
2016-10-10T00:06:44.083Z,1042.11
2016-10-10T00:07:44.668Z,1042.12
2016-10-10T00:08:44.067Z,1042.1
2016-10-10T00:09:44.055Z,1042.06
2016-10-10T00:10:44.046Z,1042.1
2016-10-10T00:11:44.039Z,1042.07
2016-10-10T00:12:44.853Z,1042.06
2016-10-10T00:13:44.017Z,1042.03
2016-10-10T00:14:44.010Z,1042.03
2016-10-10T00:15:43.999Z,1041.97
2016-10-10T00:16:44.036Z,1041.92
2016-10-10T00:17:43.982Z,1041.93
2016-10-10T00:18:43.970Z,1041.91
2016-10-10T00:19:43.963Z,1041.88
2016-10-10T00:20:43.954Z,1041.88
2016-10-10T00:21:43.943Z,1041.88
2016-10-10T00:22:43.935Z,1041.84
2016-10-10T00:23:43.925Z,1041.84
2016-10-10T00:24:43.914Z,1041.84
2016-10-10T00:25:43.906Z,1041.81
2016-10-10T00:26:43.899Z,1041.78
2016-10-10T00:27:43.888Z,1041.77
2016-10-10T00:28:43.880Z,1041.77
2016-10-10T00:29:43.869Z,1041.69
2016-10-10T00:30:43.861Z,1041.74
2016-10-10T00:31:43.852Z,1041.75
2016-10-10T00:32:43.841Z,1041.7
2016-10-10T00:33:43.833Z,1041.69
2016-10-10T00:34:43.823Z,1041.69
2016-10-10T00:35:43.814Z,1041.68
2016-10-10T00:36:43.806Z,1041.68
2016-10-10T00:37:43.796Z,1041.63
2016-10-10T00:38:43.786Z,1041.62
2016-10-10T00:39:43.777Z,1041.63
2016-10-10T00:40:43.770Z,1041.62
2016-10-10T00:41:43.761Z,1041.59
2016-10-10T00:42:43.752Z,1041.59
2016-10-10T00:43:43.742Z,1041.59
2016-10-10T00:44:43.733Z,1041.56
2016-10-10T00:45:43.724Z,1041.58
2016-10-10T00:46:43.717Z,1041.55
2016-10-10T00:47:43.906Z,1041.55
2016-10-10T00:48:43.699Z,1041.55
2016-10-10T00:49:43.689Z,1041.52
2016-10-10T00:50:43.681Z,1041.53
2016-10-10T00:51:43.672Z,1041.51
2016-10-10T00:52:43.664Z,1041.53
2016-10-10T00:53:43.654Z,1041.51
2016-10-10T00:54:43.645Z,1041.5
2016-10-10T00:55:43.635Z,1041.53
2016-10-10T00:56:43.628Z,1041.52
2016-10-10T00:57:43.619Z,1041.53
2016-10-10T00:58:43.711Z,1041.53
2016-10-10T00:59:43.602Z,1041.51
2016-10-10T01:00:43.591Z,1041.53
2016-10-10T01:01:43.582Z,1041.49
2016-10-10T01:02:43.574Z,1041.51
2016-10-10T01:03:43.567Z,1041.49
2016-10-10T01:04:43.555Z,1041.5
2016-10-10T01:05:43.549Z,1041.52
2016-10-10T01:06:43.541Z,1041.52
2016-10-10T01:07:43.531Z,1041.57
2016-10-10T01:08:43.522Z,1041.52
2016-10-10T01:09:43.512Z,1041.53
2016-10-10T01:10:43.505Z,1041.5
2016-10-10T01:11:43.494Z,1041.53
2016-10-10T01:12:43.485Z,1041.5
2016-10-10T01:13:43.477Z,1041.49
2016-10-10T01:14:43.468Z,1041.47
2016-10-10T01:15:43.459Z,1041.46
2016-10-10T01:16:43.451Z,1041.47
2016-10-10T01:17:43.442Z,1041.48
2016-10-10T01:18:43.434Z,1041.52
2016-10-10T01:19:43.424Z,1041.5
2016-10-10T01:20:43.417Z,1041.52
2016-10-10T01:21:44.657Z,1041.52
2016-10-10T01:22:43.397Z,1041.51
2016-10-10T01:23:43.720Z,1041.5
2016-10-10T01:24:43.380Z,1041.44
2016-10-10T01:25:43.374Z,1041.48
2016-10-10T01:26:43.362Z,1041.51
2016-10-10T01:27:43.356Z,1041.49
2016-10-10T01:28:43.345Z,1041.47
2016-10-10T01:29:43.338Z,1041.49
2016-10-10T01:30:43.329Z,1041.47
2016-10-10T01:31:43.319Z,1041.44
2016-10-10T01:32:43.310Z,1041.45
2016-10-10T01:33:43.303Z,1041.46
2016-10-10T01:34:43.294Z,1041.45
2016-10-10T01:35:43.286Z,1041.48
2016-10-10T01:36:43.277Z,1041.47
2016-10-10T01:37:43.266Z,1041.44
2016-10-10T01:38:43.259Z,1041.45
2016-10-10T01:39:43.249Z,1041.41
2016-10-10T01:40:43.239Z,1041.44
2016-10-10T01:41:43.233Z,1041.41
2016-10-10T01:42:43.223Z,1041.42
2016-10-10T01:43:43.216Z,1041.37
2016-10-10T01:44:43.207Z,1041.38
2016-10-10T01:45:43.198Z,1041.34
2016-10-10T01:46:43.190Z,1041.33
2016-10-10T01:47:43.179Z,1041.38
2016-10-10T01:48:43.170Z,1041.35
2016-10-10T01:49:43.161Z,1041.31
2016-10-10T01:50:43.153Z,1041.35
2016-10-10T01:51:43.143Z,1041.32
2016-10-10T01:52:43.135Z,1041.34
2016-10-10T01:53:43.127Z,1041.29
2016-10-10T01:54:43.118Z,1041.27
2016-10-10T01:55:43.109Z,1041.26
2016-10-10T01:56:43.103Z,1041.29
2016-10-10T01:57:43.092Z,1041.27
2016-10-10T01:58:43.084Z,1041.31
2016-10-10T01:59:43.075Z,1041.3
2016-10-10T02:00:43.068Z,1041.3
2016-10-10T02:01:43.058Z,1041.28
2016-10-10T02:02:43.050Z,1041.29
2016-10-10T02:03:43.041Z,1041.27
2016-10-10T02:04:43.033Z,1041.31
2016-10-10T02:05:43.224Z,1041.31
2016-10-10T02:06:43.114Z,1041.29
2016-10-10T02:07:43.006Z,1041.26
2016-10-10T02:08:43.297Z,1041.25
2016-10-10T02:09:43.489Z,1041.23
2016-10-10T02:10:42.981Z,1041.26
2016-10-10T02:11:42.973Z,1041.22
2016-10-10T02:12:42.965Z,1041.21
2016-10-10T02:13:42.954Z,1041.22
2016-10-10T02:14:42.945Z,1041.19
2016-10-10T02:15:42.936Z,1041.2
2016-10-10T02:16:42.928Z,1041.16
2016-10-10T02:18:42.913Z,1041.15
2016-10-10T02:19:42.902Z,1041.11
2016-10-10T02:20:42.896Z,1041.1
2016-10-10T02:21:42.885Z,1041.12
2016-10-10T02:22:43.127Z,1041.08
2016-10-10T02:23:42.869Z,1041.08
2016-10-10T02:24:42.861Z,1041.08
2016-10-10T02:25:42.852Z,1041.08
2016-10-10T02:26:42.844Z,1041.13
2016-10-10T02:27:42.835Z,1041.09
2016-10-10T02:28:42.824Z,1041.09
2016-10-10T02:29:42.818Z,1041.07
2016-10-10T02:30:42.809Z,1041.14
2016-10-10T02:31:42.799Z,1041.12
2016-10-10T02:32:42.793Z,1041.12
2016-10-10T02:33:42.789Z,1041.07
2016-10-10T02:34:42.774Z,1041.11
2016-10-10T02:35:42.767Z,1041.07
2016-10-10T02:36:42.758Z,1041.04
2016-10-10T02:37:42.750Z,1041.03
2016-10-10T02:38:42.740Z,1041.04
2016-10-10T02:39:42.732Z,1041.05
2016-10-10T02:40:42.722Z,1041.01
2016-10-10T02:41:42.716Z,1041.03
2016-10-10T02:42:42.707Z,1040.99
2016-10-10T02:43:42.697Z,1041.02
2016-10-10T02:44:42.689Z,1041
2016-10-10T02:45:42.680Z,1040.98
2016-10-10T02:46:42.673Z,1040.98
2016-10-10T02:47:42.662Z,1040.97
2016-10-10T02:48:43.805Z,1040.96
2016-10-10T02:49:43.713Z,1040.97
2016-10-10T02:50:42.637Z,1040.97
2016-10-10T02:51:43.756Z,1040.93
2016-10-10T02:52:42.623Z,1040.93
2016-10-10T02:53:42.611Z,1040.88
2016-10-10T02:54:42.603Z,1040.89
2016-10-10T02:55:42.595Z,1040.93
2016-10-10T02:56:42.586Z,1040.88
2016-10-10T02:57:42.578Z,1040.88
2016-10-10T02:58:42.569Z,1040.93
2016-10-10T02:59:42.561Z,1040.85
2016-10-10T03:00:42.555Z,1040.92
2016-10-10T03:01:42.543Z,1040.93
2016-10-10T03:02:42.537Z,1040.95
2016-10-10T03:03:42.527Z,1040.98
2016-10-10T03:04:42.520Z,1041.02
2016-10-10T03:05:42.511Z,1040.95
2016-10-10T03:06:42.503Z,1040.97
2016-10-10T03:07:42.493Z,1040.99
2016-10-10T03:08:42.486Z,1041
2016-10-10T03:09:42.477Z,1040.97
2016-10-10T03:10:42.467Z,1040.98
2016-10-10T03:11:42.459Z,1040.95
2016-10-10T03:12:42.450Z,1040.95
2016-10-10T03:13:42.444Z,1040.94
2016-10-10T03:14:42.433Z,1040.92
2016-10-10T03:15:42.424Z,1040.98
2016-10-10T03:16:42.416Z,1041.01
2016-10-10T03:17:42.408Z,1040.97
2016-10-10T03:18:42.399Z,1040.92
2016-10-10T03:19:42.390Z,1040.93
2016-10-10T03:20:42.384Z,1040.9
2016-10-10T03:21:42.376Z,1040.92
2016-10-10T03:22:42.368Z,1040.9
2016-10-10T03:23:42.358Z,1040.92
2016-10-10T03:24:42.748Z,1040.93
2016-10-10T03:25:42.342Z,1040.96
2016-10-10T03:26:42.333Z,1040.94
2016-10-10T03:27:42.324Z,1040.91
2016-10-10T03:28:42.317Z,1040.94
2016-10-10T03:29:42.306Z,1040.95
2016-10-10T03:30:42.297Z,1040.98
2016-10-10T03:31:42.288Z,1040.95
2016-10-10T03:32:42.280Z,1040.93
2016-10-10T03:33:42.274Z,1040.95
2016-10-10T03:34:42.263Z,1040.93
2016-10-10T03:35:42.256Z,1040.96
2016-10-10T03:36:42.246Z,1040.95
2016-10-10T03:37:42.237Z,1040.98
2016-10-10T03:38:42.231Z,1040.95
2016-10-10T03:39:42.220Z,1040.94
2016-10-10T03:40:42.212Z,1040.94
2016-10-10T03:41:42.203Z,1040.97
2016-10-10T03:42:42.196Z,1040.94
2016-10-10T03:43:42.186Z,1040.94
2016-10-10T03:44:42.179Z,1040.92
2016-10-10T03:45:42.169Z,1040.93
2016-10-10T03:46:42.183Z,1040.95
2016-10-10T03:47:42.152Z,1040.95
2016-10-10T03:48:42.143Z,1040.96
2016-10-10T03:49:42.138Z,1040.95
2016-10-10T03:50:42.129Z,1041
2016-10-10T03:51:42.122Z,1040.98
2016-10-10T03:52:42.110Z,1040.99
2016-10-10T03:53:42.103Z,1040.98
2016-10-10T03:54:42.092Z,1040.98
2016-10-10T03:55:42.086Z,1040.96
2016-10-10T03:56:42.075Z,1040.95
2016-10-10T03:57:43.942Z,1040.96
2016-10-10T03:58:42.060Z,1040.95
2016-10-10T03:59:42.051Z,1040.92
2016-10-10T04:00:42.043Z,1040.98
2016-10-10T04:01:42.035Z,1040.97
2016-10-10T04:02:42.026Z,1040.94
2016-10-10T04:03:42.018Z,1040.94
2016-10-10T04:04:42.007Z,1040.94
2016-10-10T04:05:41.999Z,1040.91
2016-10-10T04:06:41.991Z,1040.93
2016-10-10T04:07:41.984Z,1040.91
2016-10-10T04:08:41.976Z,1040.88
2016-10-10T04:09:41.967Z,1040.9
2016-10-10T04:10:41.956Z,1040.86
2016-10-10T04:11:42.719Z,1040.91
2016-10-10T04:12:41.940Z,1040.9
2016-10-10T04:13:41.933Z,1040.89
2016-10-10T04:14:41.924Z,1040.92
2016-10-10T04:15:41.913Z,1040.92
2016-10-10T04:16:41.905Z,1040.91
2016-10-10T04:17:41.896Z,1040.94
2016-10-10T04:18:41.887Z,1040.93
2016-10-10T04:19:41.879Z,1040.93
2016-10-10T04:20:41.873Z,1040.94
2016-10-10T04:21:41.863Z,1040.96
2016-10-10T04:22:41.853Z,1040.95
2016-10-10T04:23:41.847Z,1040.96
2016-10-10T04:24:41.839Z,1040.95
2016-10-10T04:25:41.827Z,1040.92
2016-10-10T04:26:41.819Z,1040.91
2016-10-10T04:27:41.813Z,1040.94
2016-10-10T04:28:41.801Z,1040.9
2016-10-10T04:29:41.795Z,1040.92
2016-10-10T04:30:41.784Z,1040.92
2016-10-10T04:31:41.778Z,1040.96
2016-10-10T04:32:41.769Z,1040.94
2016-10-10T04:33:41.761Z,1040.98
2016-10-10T04:34:41.752Z,1041.01
2016-10-10T04:35:41.741Z,1040.98
2016-10-10T04:36:41.732Z,1040.96
2016-10-10T04:37:41.743Z,1040.9
2016-10-10T04:38:41.718Z,1040.9
2016-10-10T04:39:41.708Z,1040.88
2016-10-10T04:40:41.700Z,1040.86
2016-10-10T04:41:41.689Z,1040.85
2016-10-10T04:42:42.182Z,1040.84
2016-10-10T04:43:41.672Z,1040.81
2016-10-10T04:44:41.664Z,1040.79
2016-10-10T04:45:41.655Z,1040.79
2016-10-10T04:46:41.647Z,1040.78
2016-10-10T04:47:41.638Z,1040.75
2016-10-10T04:48:41.629Z,1040.76
2016-10-10T04:49:41.971Z,1040.78
2016-10-10T04:50:41.611Z,1040.75
2016-10-10T04:51:41.603Z,1040.75
2016-10-10T04:52:41.597Z,1040.73
2016-10-10T04:53:41.586Z,1040.77
2016-10-10T04:54:41.828Z,1040.74
2016-10-10T04:55:41.569Z,1040.72
2016-10-10T04:56:41.562Z,1040.77
2016-10-10T04:57:41.553Z,1040.76
2016-10-10T04:58:41.544Z,1040.83
2016-10-10T04:59:41.784Z,1040.85
2016-10-10T05:00:41.526Z,1040.89
2016-10-10T05:01:41.516Z,1040.95
2016-10-10T05:02:41.510Z,1041
2016-10-10T05:03:41.499Z,1041.01
2016-10-10T05:04:41.791Z,1041.07
2016-10-10T05:05:41.482Z,1041.06
2016-10-10T05:06:41.473Z,1041.15
2016-10-10T05:07:41.467Z,1041.23
2016-10-10T05:08:41.456Z,1041.18
2016-10-10T05:09:41.748Z,1041.2
2016-10-10T05:10:41.438Z,1041.2
2016-10-10T05:11:41.432Z,1041.19
2016-10-10T05:12:41.420Z,1041.14
2016-10-10T05:13:41.412Z,1041.12
2016-10-10T05:14:41.656Z,1041.11
2016-10-10T05:15:41.395Z,1041.14
2016-10-10T05:16:42.010Z,1041.11
2016-10-10T05:17:41.380Z,1041.17
2016-10-10T05:18:41.369Z,1041.15
2016-10-10T05:19:41.647Z,1041.13
2016-10-10T05:20:41.353Z,1041.12
2016-10-10T05:21:41.344Z,1041.12
2016-10-10T05:22:41.335Z,1041.13
2016-10-10T05:23:41.327Z,1041.16
2016-10-10T05:24:41.316Z,1041.23
2016-10-10T05:25:41.310Z,1041.27
2016-10-10T05:26:41.299Z,1041.31
2016-10-10T05:27:41.292Z,1041.43
2016-10-10T05:28:41.283Z,1041.48
2016-10-10T05:29:41.274Z,1041.47
2016-10-10T05:30:41.264Z,1041.5
2016-10-10T05:31:41.257Z,1041.53
2016-10-10T05:32:41.247Z,1041.56
2016-10-10T05:33:41.238Z,1041.52
2016-10-10T05:34:41.230Z,1041.54
2016-10-10T05:35:41.220Z,1041.55
2016-10-10T05:36:41.211Z,1041.56
2016-10-10T05:37:41.202Z,1041.62
2016-10-10T05:38:41.194Z,1041.64
2016-10-10T05:39:41.184Z,1041.67
2016-10-10T05:40:41.175Z,1041.69
2016-10-10T05:41:41.166Z,1041.75
2016-10-10T05:42:41.158Z,1041.74
2016-10-10T05:43:41.151Z,1041.8
2016-10-10T05:44:41.143Z,1041.78
2016-10-10T05:45:41.132Z,1041.81
2016-10-10T05:46:41.122Z,1041.83
2016-10-10T05:47:41.115Z,1041.89
2016-10-10T05:48:41.104Z,1041.94
2016-10-10T05:49:41.094Z,1041.96
2016-10-10T05:50:41.088Z,1042.02
2016-10-10T05:51:41.077Z,1042.03
2016-10-10T05:52:41.068Z,1042.03
2016-10-10T05:53:41.059Z,1041.98
2016-10-10T05:54:41.051Z,1041.91
2016-10-10T05:55:41.040Z,1041.87
2016-10-10T05:56:41.032Z,1041.76
2016-10-10T05:57:41.023Z,1041.71
2016-10-10T05:58:41.014Z,1041.67
2016-10-10T05:59:41.003Z,1041.63
2016-10-10T06:02:40.978Z,1041.53
2016-10-10T06:03:40.966Z,1041.54
2016-10-10T06:04:40.959Z,1041.49
2016-10-10T06:05:40.948Z,1041.46
2016-10-10T06:06:40.940Z,1041.44
2016-10-10T06:07:40.930Z,1041.4
2016-10-10T06:08:40.922Z,1041.37
2016-10-10T06:10:40.904Z,1041.29
2016-10-10T06:11:40.894Z,1041.26
2016-10-10T06:12:40.885Z,1041.25
2016-10-10T06:13:40.878Z,1041.26
2016-10-10T06:14:40.867Z,1041.23
2016-10-10T06:15:41.359Z,1041.2
2016-10-10T06:16:40.852Z,1041.2
2016-10-10T06:17:40.843Z,1041.14
2016-10-10T06:18:40.832Z,1041.1
2016-10-10T06:19:40.826Z,1041.03
2016-10-10T06:20:40.815Z,1040.97
2016-10-10T06:21:40.809Z,1040.93
2016-10-10T06:22:40.797Z,1040.92
2016-10-10T06:23:40.790Z,1040.88
2016-10-10T06:24:40.781Z,1040.89
2016-10-10T06:25:40.771Z,1040.88
2016-10-10T06:26:40.765Z,1040.84
2016-10-10T06:27:40.754Z,1040.83
2016-10-10T06:28:40.747Z,1040.79
2016-10-10T06:29:40.740Z,1040.8
2016-10-10T06:30:40.731Z,1040.81
2016-10-10T06:31:40.722Z,1040.79
2016-10-10T06:32:40.713Z,1040.75
2016-10-10T06:33:40.706Z,1040.74
2016-10-10T06:34:40.696Z,1040.71
2016-10-10T06:35:40.688Z,1040.69
2016-10-10T06:36:40.681Z,1040.68
2016-10-10T06:37:40.671Z,1040.67
2016-10-10T06:38:40.663Z,1040.66
2016-10-10T06:39:40.655Z,1040.7
2016-10-10T06:40:40.646Z,1040.71
2016-10-10T06:41:40.640Z,1040.72
2016-10-10T06:42:40.633Z,1040.71
2016-10-10T06:43:40.625Z,1040.66
2016-10-10T06:44:40.616Z,1040.63
2016-10-10T06:45:40.607Z,1040.61
2016-10-10T06:46:40.599Z,1040.56
2016-10-10T06:47:40.590Z,1040.55
2016-10-10T06:48:40.582Z,1040.54
2016-10-10T06:49:40.574Z,1040.52
2016-10-10T06:50:40.566Z,1040.45
2016-10-10T06:51:40.557Z,1040.44
2016-10-10T06:52:40.549Z,1040.44
2016-10-10T06:53:40.541Z,1040.44
2016-10-10T06:54:40.534Z,1040.42
2016-10-10T06:55:40.525Z,1040.38
2016-10-10T06:56:40.518Z,1040.35
2016-10-10T06:57:40.510Z,1040.32
2016-10-10T06:58:40.504Z,1040.3
2016-10-10T06:59:40.494Z,1040.32
2016-10-10T07:00:40.489Z,1040.27
2016-10-10T07:01:40.479Z,1040.29
2016-10-10T07:02:40.472Z,1040.18
2016-10-10T07:03:40.465Z,1040.16
2016-10-10T07:04:40.458Z,1040.2
2016-10-10T07:05:40.448Z,1040.17
2016-10-10T07:06:40.440Z,1040.21
2016-10-10T07:07:40.434Z,1040.15
2016-10-10T07:08:40.425Z,1040.11
2016-10-10T07:09:40.419Z,1040.15
2016-10-10T07:10:40.411Z,1040.15
2016-10-10T07:11:40.402Z,1040.15
2016-10-10T07:12:40.395Z,1040.13
2016-10-10T07:13:40.388Z,1040.13
2016-10-10T07:14:40.379Z,1040.11
2016-10-10T07:15:40.372Z,1040.11
2016-10-10T07:16:40.364Z,1040.12
2016-10-10T07:17:40.357Z,1040.11
2016-10-10T07:18:40.350Z,1040.09
2016-10-10T07:19:40.743Z,1040.08
2016-10-10T07:20:40.337Z,1040.07
2016-10-10T07:21:40.328Z,1040.09
2016-10-10T07:22:40.321Z,1040.08
2016-10-10T07:23:40.313Z,1040.03
2016-10-10T07:24:40.307Z,1040.01
2016-10-10T07:25:40.300Z,1039.93
2016-10-10T07:26:40.292Z,1039.99
2016-10-10T07:27:40.684Z,1039.99
2016-10-10T07:28:40.276Z,1039.96
2016-10-10T07:29:40.270Z,1039.99
2016-10-10T07:30:40.262Z,1039.99
2016-10-10T07:31:40.256Z,1040
2016-10-10T07:32:40.247Z,1040.01
2016-10-10T07:33:40.339Z,1039.98
2016-10-10T07:34:40.234Z,1039.99
2016-10-10T07:35:40.226Z,1039.96
2016-10-10T07:36:40.217Z,1039.93
2016-10-10T07:37:40.211Z,1039.96
2016-10-10T07:38:40.204Z,1039.97
2016-10-10T07:39:40.197Z,1039.9
2016-10-10T07:40:40.191Z,1039.86
2016-10-10T07:41:40.182Z,1039.76
2016-10-10T07:42:40.174Z,1039.77
2016-10-10T07:43:40.169Z,1039.74
2016-10-10T07:44:40.162Z,1039.74
2016-10-10T07:45:40.156Z,1039.72
2016-10-10T07:46:40.145Z,1039.7
2016-10-10T07:47:40.141Z,1039.68
2016-10-10T07:48:40.134Z,1039.67
2016-10-10T07:49:40.124Z,1039.6
2016-10-10T07:50:40.119Z,1039.63
2016-10-10T07:51:40.111Z,1039.59
2016-10-10T07:52:40.105Z,1039.52
2016-10-10T07:53:40.095Z,1039.52
2016-10-10T07:54:40.089Z,1039.48
2016-10-10T07:55:40.635Z,1039.51
2016-10-10T07:56:40.077Z,1039.55
2016-10-10T07:57:40.069Z,1039.58
2016-10-10T07:58:40.061Z,1039.48
2016-10-10T07:59:40.056Z,1039.59
2016-10-10T08:00:40.049Z,1039.56
2016-10-10T08:01:40.042Z,1039.49
2016-10-10T08:02:40.034Z,1039.4
2016-10-10T08:03:40.029Z,1039.37
2016-10-10T08:04:41.048Z,1039.36
2016-10-10T08:05:40.013Z,1039.3
2016-10-10T08:06:40.007Z,1039.29
2016-10-10T08:07:40.002Z,1039.25
2016-10-10T08:08:39.992Z,1039.28
2016-10-10T08:09:39.988Z,1039.31
2016-10-10T08:10:39.981Z,1039.33
2016-10-10T08:11:39.975Z,1039.3
2016-10-10T08:12:39.966Z,1039.29
2016-10-10T08:13:39.959Z,1039.28
2016-10-10T08:14:39.954Z,1039.24
2016-10-10T08:15:39.944Z,1039.24
2016-10-10T08:16:39.938Z,1039.19
2016-10-10T08:17:39.932Z,1039.15
2016-10-10T08:18:39.925Z,1039.15
2016-10-10T08:19:39.920Z,1039.15
2016-10-10T08:20:39.914Z,1039.09
2016-10-10T08:21:39.905Z,1039.06
2016-10-10T08:22:39.898Z,1038.98
2016-10-10T08:23:39.892Z,1038.91
2016-10-10T08:24:39.887Z,1038.84
2016-10-10T08:25:39.880Z,1038.82
2016-10-10T08:26:39.872Z,1038.83
2016-10-10T08:27:39.866Z,1038.79
2016-10-10T08:28:39.862Z,1038.76
2016-10-10T08:29:39.856Z,1038.76
2016-10-10T08:30:39.847Z,1038.75
2016-10-10T08:31:39.843Z,1038.76
2016-10-10T08:32:39.835Z,1038.82
2016-10-10T08:33:39.827Z,1038.83
2016-10-10T08:34:39.823Z,1038.81
2016-10-10T08:35:39.815Z,1038.83
2016-10-10T08:36:39.809Z,1038.75
2016-10-10T08:37:39.905Z,1038.65
2016-10-10T08:38:39.799Z,1038.6
2016-10-10T08:39:39.790Z,1038.47
2016-10-10T08:40:39.785Z,1038.41
2016-10-10T08:41:40.231Z,1038.36
2016-10-10T08:42:39.774Z,1038.29
2016-10-10T08:43:39.766Z,1038.23
2016-10-10T08:44:39.762Z,1038.24
2016-10-10T08:45:39.756Z,1038.21
2016-10-10T08:46:39.748Z,1038.19
2016-10-10T08:47:40.994Z,1038.18
2016-10-10T08:48:39.736Z,1038.16
2016-10-10T08:49:39.732Z,1038.09
2016-10-10T08:50:39.727Z,1038.02
2016-10-10T08:51:39.970Z,1037.99
2016-10-10T08:52:39.716Z,1037.99
2016-10-10T08:53:39.709Z,1037.99
2016-10-10T08:54:39.707Z,1037.91
2016-10-10T08:55:39.697Z,1037.91
2016-10-10T08:56:39.692Z,1037.94
2016-10-10T08:57:39.688Z,1037.94
2016-10-10T08:58:39.681Z,1037.94
2016-10-10T08:59:39.677Z,1037.99
2016-10-10T09:00:39.670Z,1038.04
2016-10-10T09:01:39.665Z,1038.07
2016-10-10T09:02:39.658Z,1038.15
2016-10-10T09:03:39.654Z,1038.21
2016-10-10T09:04:39.652Z,1038.19
2016-10-10T09:05:39.643Z,1038.2
2016-10-10T09:06:39.639Z,1038.16
2016-10-10T09:07:39.635Z,1038.08
2016-10-10T09:08:39.629Z,1038.07
2016-10-10T09:09:39.623Z,1038.02
2016-10-10T09:10:40.514Z,1038.01
2016-10-10T09:11:39.612Z,1037.96
2016-10-10T09:12:39.607Z,1037.96
2016-10-10T09:13:39.600Z,1037.93
2016-10-10T09:14:40.222Z,1037.89
2016-10-10T09:15:39.591Z,1037.96
2016-10-10T09:16:39.584Z,1037.91
2016-10-10T09:17:39.578Z,1037.95
2016-10-10T09:18:39.575Z,1037.94
2016-10-10T09:19:39.662Z,1037.95
2016-10-10T09:21:39.558Z,1037.95
2016-10-10T09:22:39.552Z,1037.92
2016-10-10T09:23:39.549Z,1037.94
2016-10-10T09:24:39.838Z,1037.94
2016-10-10T09:25:39.538Z,1037.96
2016-10-10T09:26:39.531Z,1037.89
2016-10-10T09:27:39.527Z,1037.89
2016-10-10T09:28:39.521Z,1037.82
2016-10-10T09:29:39.517Z,1037.82
2016-10-10T09:30:39.512Z,1037.79
2016-10-10T09:31:39.507Z,1037.78
2016-10-10T09:32:39.499Z,1037.78
2016-10-10T09:33:39.495Z,1037.74
2016-10-10T09:34:39.493Z,1037.69
2016-10-10T09:35:39.486Z,1037.64
2016-10-10T09:36:39.483Z,1037.66
2016-10-10T09:37:39.475Z,1037.65
2016-10-10T09:38:39.470Z,1037.69
2016-10-10T09:39:39.464Z,1037.69
2016-10-10T09:40:39.462Z,1037.69
2016-10-10T09:41:39.458Z,1037.72
2016-10-10T09:42:39.452Z,1037.78
2016-10-10T09:43:39.446Z,1037.77
2016-10-10T09:44:39.440Z,1037.78
2016-10-10T09:45:39.435Z,1037.79
2016-10-10T09:46:39.429Z,1037.77
2016-10-10T09:47:39.424Z,1037.78
2016-10-10T09:48:39.420Z,1037.79
2016-10-10T09:49:39.415Z,1037.72
2016-10-10T09:50:39.411Z,1037.65
2016-10-10T09:51:39.406Z,1037.59
2016-10-10T09:52:39.402Z,1037.57
2016-10-10T09:53:39.396Z,1037.54
2016-10-10T09:54:39.389Z,1037.51
2016-10-10T09:55:39.387Z,1037.45
2016-10-10T09:57:39.376Z,1037.4
2016-10-10T09:58:40.073Z,1037.38
2016-10-10T09:59:39.766Z,1037.47
2016-10-10T10:00:39.363Z,1037.46
2016-10-10T10:01:39.555Z,1037.52
2016-10-10T10:02:39.351Z,1037.52
2016-10-10T10:03:39.346Z,1037.52
2016-10-10T10:04:39.341Z,1037.56
2016-10-10T10:05:39.338Z,1037.6
2016-10-10T10:07:39.329Z,1037.63
2016-10-10T10:08:39.324Z,1037.67
2016-10-10T10:09:39.319Z,1037.63
2016-10-10T10:10:39.312Z,1037.63
2016-10-10T10:11:39.310Z,1037.59
2016-10-10T10:12:39.304Z,1037.61
2016-10-10T10:13:39.300Z,1037.52
2016-10-10T10:14:39.295Z,1037.52
2016-10-10T10:15:39.291Z,1037.53
2016-10-10T10:16:39.283Z,1037.52
2016-10-10T10:17:39.281Z,1037.52
2016-10-10T10:18:39.275Z,1037.44
2016-10-10T10:19:39.271Z,1037.48
2016-10-10T10:20:39.266Z,1037.47
2016-10-10T10:21:39.262Z,1037.47
2016-10-10T10:22:39.256Z,1037.49
2016-10-10T10:23:39.251Z,1037.49
2016-10-10T10:24:39.245Z,1037.53
2016-10-10T10:25:39.243Z,1037.52
2016-10-10T10:26:39.237Z,1037.49
2016-10-10T10:27:39.232Z,1037.41
2016-10-10T10:28:39.232Z,1037.4
2016-10-10T10:29:39.226Z,1037.4
2016-10-10T10:30:39.221Z,1037.39
2016-10-10T10:31:39.213Z,1037.37
2016-10-10T10:32:39.212Z,1037.34
2016-10-10T10:33:39.207Z,1037.25
2016-10-10T10:34:39.202Z,1037.15
2016-10-10T10:35:39.196Z,1037.03
2016-10-10T10:36:39.192Z,1036.89
2016-10-10T10:37:39.188Z,1036.81
2016-10-10T10:38:39.182Z,1036.76
2016-10-10T10:39:39.180Z,1036.7
2016-10-10T10:40:39.174Z,1036.67
2016-10-10T10:41:39.811Z,1036.6
2016-10-10T10:42:39.215Z,1036.5
2016-10-10T10:43:39.164Z,1036.5
2016-10-10T10:44:39.158Z,1036.42
2016-10-10T10:45:39.155Z,1036.41
2016-10-10T10:46:39.151Z,1036.41
2016-10-10T10:47:39.147Z,1036.47
2016-10-10T10:48:39.143Z,1036.55
2016-10-10T10:49:39.139Z,1036.66
2016-10-10T10:50:39.133Z,1036.85
2016-10-10T10:51:39.130Z,1037.04
2016-10-10T10:52:39.126Z,1037.18
2016-10-10T10:53:39.122Z,1037.32
2016-10-10T10:54:39.119Z,1037.49
2016-10-10T10:55:39.114Z,1037.53
2016-10-10T10:56:39.111Z,1037.59
2016-10-10T10:57:39.107Z,1037.6
2016-10-10T10:58:39.103Z,1037.61
2016-10-10T10:59:39.096Z,1037.6
2016-10-10T11:00:39.095Z,1037.64
2016-10-10T11:01:39.088Z,1037.71
2016-10-10T11:02:39.084Z,1037.73
2016-10-10T11:03:39.080Z,1037.77
2016-10-10T11:04:39.076Z,1037.74
2016-10-10T11:05:39.072Z,1037.75
2016-10-10T11:06:39.067Z,1037.77
2016-10-10T11:07:39.062Z,1037.77
2016-10-10T11:08:39.055Z,1037.81
2016-10-10T11:09:39.051Z,1037.75
2016-10-10T11:10:39.047Z,1037.69
2016-10-10T11:11:39.043Z,1037.58
2016-10-10T11:12:39.036Z,1037.54
2016-10-10T11:13:39.032Z,1037.45
2016-10-10T11:14:39.027Z,1037.37
2016-10-10T11:15:39.773Z,1037.26
2016-10-10T11:16:39.017Z,1037.09
2016-10-10T11:17:39.015Z,1036.85
2016-10-10T11:18:39.010Z,1036.59
2016-10-10T11:19:39.003Z,1036.33
2016-10-10T11:20:39.001Z,1036.06
2016-10-10T11:21:38.995Z,1035.89
2016-10-10T11:22:38.991Z,1035.93
2016-10-10T11:24:38.984Z,1036.03
2016-10-10T11:25:38.979Z,1036.12
2016-10-10T11:26:38.973Z,1036.12
2016-10-10T11:27:38.972Z,1036.11
2016-10-10T11:28:39.568Z,1036.14
2016-10-10T11:29:38.961Z,1036.22
2016-10-10T11:30:38.958Z,1036.28
2016-10-10T11:31:38.956Z,1036.41
2016-10-10T11:32:38.951Z,1036.5
2016-10-10T11:33:38.946Z,1036.49
2016-10-10T11:34:38.943Z,1036.38
2016-10-10T11:35:38.939Z,1036.34
2016-10-10T11:36:38.934Z,1036.33
2016-10-10T11:37:38.931Z,1036.4
2016-10-10T11:38:38.930Z,1036.41
2016-10-10T11:39:38.924Z,1036.46
2016-10-10T11:40:38.921Z,1036.49
2016-10-10T11:41:38.917Z,1036.49
2016-10-10T11:42:38.915Z,1036.48
2016-10-10T11:43:38.910Z,1036.43
2016-10-10T11:44:38.905Z,1036.38
2016-10-10T11:45:38.901Z,1036.32
2016-10-10T11:46:38.898Z,1036.24
2016-10-10T11:47:40.356Z,1036.13
2016-10-10T11:48:39.451Z,1036.05
2016-10-10T11:49:38.888Z,1036.01
2016-10-10T11:50:38.885Z,1036.02
2016-10-10T11:51:38.880Z,1036.01
2016-10-10T11:52:38.875Z,1036.03
2016-10-10T11:53:38.872Z,1035.98
2016-10-10T11:54:38.868Z,1036
2016-10-10T11:55:38.866Z,1035.96
2016-10-10T11:56:39.362Z,1035.92
2016-10-10T11:57:39.087Z,1035.9
2016-10-10T11:58:38.855Z,1035.92
2016-10-10T11:59:39.304Z,1035.91
2016-10-10T12:00:39.488Z,1035.91
2016-10-10T12:01:38.842Z,1035.94
2016-10-10T12:02:39.189Z,1035.99
2016-10-10T12:03:38.838Z,1036
2016-10-10T12:04:38.834Z,1036.04
2016-10-10T12:05:38.830Z,1036.07
2016-10-10T12:06:38.826Z,1036.14
2016-10-10T12:07:38.823Z,1036.16
2016-10-10T12:08:38.817Z,1036.21
2016-10-10T12:09:38.812Z,1036.25
2016-10-10T12:10:38.811Z,1036.28
2016-10-10T12:11:38.805Z,1036.24
2016-10-10T12:12:38.803Z,1036.21
2016-10-10T12:13:38.801Z,1036.12
2016-10-10T12:14:38.794Z,1036.11
2016-10-10T12:15:38.792Z,1036.07
2016-10-10T12:16:38.789Z,1036.04